Terminal Aerodrome Forecast
Issued by NWS Cleveland, OH

Home | Current Version | Previous Version | Text Only | Print | Product List | Glossary Off
Versions: 1 2 3 4 5 6 7 8 9 10 11 12 13 14 15 16 17 18 19 20

000
FTUS41 KCLE 291100
TAFERI
TAF
KERI 291139Z 2912/3012 19003KT P6SM BKN250
     FM291500 32005KT P6SM SKC
     FM292300 20003KT P6SM SCT250
     FM301000 28005KT P6SM VCSH BKN040 OVC100=

USA.gov is the U.S. government's official web portal to all federal, state and local government web resources and services.